Time;durP1;ratioP1;P1;durP2;ratioP2;P2;SDS_P1;SDS_P2;PMS_P1;PMS_P2;Temp;Humidity;BMP_temperature;BMP_pressure;BME280_temperature;BME280_humidity;BME280_pressure;Samples;Min_cycle;Max_cycle;Signal;HPM_P1;HPM_P2
2022/07/24 00:00:24;;;;;;;5.80;3.88;;;19.90;59.90;21.90;94309.00;;;;10471693;28;45513;-65
2022/07/24 00:05:45;;;;;;;4.57;3.90;;;19.90;59.80;21.90;94304.00;;;;10483825;28;45270;-64
2022/07/24 00:11:06;;;;;;;6.68;4.13;;;19.80;59.70;21.90;94317.00;;;;10470727;28;44664;-64
2022/07/24 00:16:28;;;;;;;5.22;4.00;;;19.80;59.80;21.90;94307.00;;;;10470365;28;45358;-64
2022/07/24 00:21:49;;;;;;;6.28;4.10;;;19.80;59.80;21.80;94315.00;;;;10469180;28;45185;-64
2022/07/24 00:27:09;;;;;;;5.45;3.65;;;19.80;59.80;21.80;94314.00;;;;10468737;28;45465;-65
2022/07/24 00:32:32;;;;;;;5.00;3.90;;;19.80;59.80;21.80;94311.00;;;;10478387;28;45146;-65
2022/07/24 00:37:53;;;;;;;5.10;3.78;;;19.80;59.70;21.80;94314.00;;;;10468904;28;45369;-65
2022/07/24 00:43:16;;;;;;;6.78;4.10;;;19.80;59.70;21.80;94311.00;;;;10469209;28;45288;-64
2022/07/24 00:48:38;;;;;;;5.07;3.72;;;19.70;59.80;21.80;94321.00;;;;10468726;28;45077;-65
2022/07/24 00:53:58;;;;;;;5.82;3.97;;;19.70;59.90;21.80;94311.00;;;;10469013;28;45283;-64
2022/07/24 00:59:19;;;;;;;5.05;3.88;;;19.70;59.90;21.80;94307.00;;;;10467031;28;45152;-64
2022/07/24 01:04:41;;;;;;;4.57;3.90;;;19.70;59.80;21.80;94315.00;;;;10478763;28;45276;-64
2022/07/24 01:10:03;;;;;;;6.78;4.10;;;19.70;59.80;21.80;94314.00;;;;10456199;28;45444;-64
2022/07/24 01:15:23;;;;;;;4.72;3.92;;;19.80;59.80;21.80;94300.00;;;;10468157;28;45211;-64
2022/07/24 01:20:47;;;;;;;5.20;3.55;;;19.80;59.90;21.80;94302.00;;;;10469083;28;45187;-65
2022/07/24 01:26:09;;;;;;;4.07;3.42;;;19.70;59.80;21.80;94295.00;;;;10467556;28;45223;-63
2022/07/24 01:31:29;;;;;;;4.82;3.80;;;19.70;59.80;21.70;94305.00;;;;10483214;28;45298;-65
2022/07/24 01:36:51;;;;;;;5.80;4.07;;;19.70;59.70;21.70;94301.00;;;;10473461;28;45207;-65
2022/07/24 01:42:12;;;;;;;5.13;4.03;;;19.70;59.60;21.70;94294.00;;;;10474315;28;45244;-64
2022/07/24 01:47:32;;;;;;;4.60;3.60;;;19.70;59.60;21.70;94302.00;;;;10474604;28;45202;-65
2022/07/24 01:52:54;;;;;;;5.65;4.07;;;19.70;59.50;21.70;94305.00;;;;10475194;28;45386;-65
2022/07/24 01:58:14;;;;;;;4.82;3.92;;;19.70;59.50;21.70;94290.00;;;;10473776;28;45255;-65
2022/07/24 02:03:35;;;;;;;5.22;3.70;;;19.60;59.60;21.70;94296.00;;;;10488204;28;45265;-65
2022/07/24 02:08:57;;;;;;;4.70;3.65;;;19.60;59.70;21.70;94291.00;;;;10474278;28;45259;-63
2022/07/24 02:14:17;;;;;;;5.35;3.65;;;19.60;59.80;21.60;94277.00;;;;10473553;28;45163;-63
2022/07/24 02:19:38;;;;;;;4.82;3.70;;;19.60;59.90;21.60;94276.00;;;;10474744;28;45210;-65
2022/07/24 02:25:00;;;;;;;5.78;3.90;;;19.60;60.00;21.60;94276.00;;;;10472440;28;45174;-64
2022/07/24 02:30:23;;;;;;;5.68;3.75;;;19.60;59.90;21.60;94273.00;;;;10479761;28;45272;-64
2022/07/24 02:35:44;;;;;;;6.22;3.80;;;19.60;60.00;21.60;94276.00;;;;10487454;28;45137;-65
2022/07/24 02:41:06;;;;;;;4.65;3.60;;;19.50;60.00;21.60;94279.00;;;;10473285;28;45306;-65
2022/07/24 02:46:27;;;;;;;4.57;3.50;;;19.50;60.00;21.60;94281.00;;;;10472741;28;45110;-64
2022/07/24 02:51:47;;;;;;;5.65;3.72;;;19.50;59.90;21.50;94287.00;;;;10472025;28;45175;-64
2022/07/24 02:57:09;;;;;;;4.93;3.58;;;19.50;59.90;21.50;94287.00;;;;10471508;28;45208;-64
2022/07/24 03:02:30;;;;;;;4.72;3.60;;;19.40;59.70;21.50;94285.00;;;;10472916;28;45317;-65
2022/07/24 03:07:50;;;;;;;4.75;3.72;;;19.40;59.80;21.60;94281.00;;;;10471941;28;45129;-65
2022/07/24 03:13:12;;;;;;;4.85;3.55;;;19.40;59.80;21.50;94272.00;;;;10472591;28;45208;-64
2022/07/24 03:18:33;;;;;;;4.28;3.25;;;19.40;59.60;21.50;94267.00;;;;10472164;28;45199;-65
2022/07/24 03:23:53;;;;;;;4.90;3.47;;;19.40;59.30;21.50;94281.00;;;;10470604;28;45280;-65
2022/07/24 03:29:15;;;;;;;4.13;3.20;;;19.40;59.20;21.50;94286.00;;;;10473850;28;45251;-64
2022/07/24 03:34:36;;;;;;;4.65;3.67;;;19.40;59.30;21.50;94288.00;;;;10489913;28;45244;-63
2022/07/24 03:39:57;;;;;;;6.50;3.67;;;19.40;59.30;21.50;94272.00;;;;10471579;28;45298;-64
2022/07/24 03:45:18;;;;;;;5.18;3.85;;;19.40;58.90;21.50;94280.00;;;;10470882;28;45234;-64
2022/07/24 03:50:39;;;;;;;4.80;3.45;;;19.40;58.80;21.50;94294.00;;;;10471951;28;45280;-64
2022/07/24 03:56:00;;;;;;;4.18;3.50;;;19.40;58.70;21.50;94282.00;;;;10469988;28;45208;-64
2022/07/24 04:01:22;;;;;;;3.90;3.20;;;19.40;58.70;21.50;94303.00;;;;10471578;28;45261;-65
2022/07/24 04:06:43;;;;;;;4.85;3.38;;;19.40;58.50;21.50;94304.00;;;;10456603;28;45261;-65
2022/07/24 04:12:03;;;;;;;5.75;3.78;;;19.30;58.50;21.40;94299.00;;;;10470302;28;45266;-63
2022/07/24 04:17:26;;;;;;;5.65;3.55;;;19.40;58.40;21.40;94313.00;;;;10470181;28;45239;-65
2022/07/24 04:22:47;;;;;;;5.47;3.30;;;19.30;58.20;21.40;94304.00;;;;10469960;28;45239;-65
2022/07/24 04:28:07;;;;;;;4.85;3.20;;;19.30;58.30;21.40;94296.00;;;;10470111;28;45370;-65
2022/07/24 04:33:29;;;;;;;5.07;3.53;;;19.30;58.40;21.40;94310.00;;;;10485365;28;45183;-63
2022/07/24 04:38:51;;;;;;;5.15;3.30;;;19.30;58.50;21.40;94315.00;;;;10469351;28;44609;-64
2022/07/24 04:44:11;;;;;;;4.25;3.00;;;19.30;58.40;21.40;94312.00;;;;10469383;28;45215;-63
2022/07/24 04:49:33;;;;;;;6.47;3.90;;;19.30;58.60;21.40;94317.00;;;;10469661;28;45184;-65
2022/07/24 04:54:53;;;;;;;3.92;2.90;;;19.30;58.40;21.40;94317.00;;;;10468902;28;45247;-64
2022/07/24 05:00:15;;;;;;;4.45;3.30;;;19.30;58.50;21.40;94324.00;;;;10468987;28;45461;-65
2022/07/24 05:05:37;;;;;;;4.55;3.60;;;19.20;58.50;21.40;94317.00;;;;10481539;28;45289;-65
2022/07/24 05:10:57;;;;;;;4.85;3.20;;;19.30;58.60;21.40;94307.00;;;;10468799;28;45208;-64
2022/07/24 05:16:18;;;;;;;3.90;3.13;;;19.30;58.60;21.40;94311.00;;;;10474011;28;45371;-65
2022/07/24 05:21:40;;;;;;;4.45;3.22;;;19.30;58.70;21.40;94322.00;;;;10475020;28;45106;-64
2022/07/24 05:27:01;;;;;;;4.78;3.22;;;19.30;58.70;21.40;94314.00;;;;10475692;28;45164;-64
2022/07/24 05:32:21;;;;;;;5.60;3.30;;;19.40;58.80;21.40;94323.00;;;;10491684;28;45449;-64
2022/07/24 05:37:43;;;;;;;4.25;3.30;;;19.40;59.60;21.40;94316.00;;;;10463820;28;45087;-63
2022/07/24 05:43:04;;;;;;;4.20;3.10;;;19.40;59.20;21.40;94325.00;;;;10476104;28;45184;-63
2022/07/24 05:48:25;;;;;;;5.05;3.22;;;19.40;59.40;21.40;94305.00;;;;10474937;28;45085;-63
2022/07/24 05:53:47;;;;;;;4.28;3.35;;;19.40;59.80;21.40;94306.00;;;;10476089;28;45399;-63
2022/07/24 05:59:07;;;;;;;4.28;3.10;;;19.40;60.50;21.40;94300.00;;;;10465697;28;45204;-63
2022/07/24 06:04:28;;;;;;;4.47;3.47;;;19.40;59.80;21.40;94300.00;;;;10474390;28;45225;-63
2022/07/24 06:09:51;;;;;;;3.83;3.22;;;19.40;59.80;21.40;94313.00;;;;10474893;28;45153;-63
2022/07/24 06:15:12;;;;;;;4.97;3.28;;;19.30;59.70;21.40;94310.00;;;;10474064;28;45492;-62
2022/07/24 06:20:33;;;;;;;4.43;3.28;;;19.30;59.70;21.40;94321.00;;;;10474476;28;45397;-63
2022/07/24 06:25:55;;;;;;;3.83;3.05;;;19.30;59.70;21.40;94321.00;;;;10472024;28;45187;-63
2022/07/24 06:31:15;;;;;;;4.07;3.17;;;19.30;59.70;21.40;94323.00;;;;10483481;28;45236;-64
2022/07/24 06:36:36;;;;;;;3.95;3.00;;;19.30;59.70;21.40;94321.00;;;;10476437;28;45218;-63
2022/07/24 06:41:58;;;;;;;4.45;3.40;;;19.40;59.80;21.40;94307.00;;;;10473794;28;45153;-63
2022/07/24 06:47:18;;;;;;;4.63;3.25;;;19.30;59.80;21.50;94324.00;;;;10473343;28;45278;-62
2022/07/24 06:52:39;;;;;;;4.53;3.08;;;19.30;60.00;21.50;94310.00;;;;10471711;28;45148;-63
2022/07/24 06:58:01;;;;;;;4.88;3.10;;;19.40;60.20;21.50;94319.00;;;;10472198;28;45231;-63
2022/07/24 07:03:21;;;;;;;3.50;2.90;;;19.30;60.20;21.50;94310.00;;;;10486185;28;45451;-63
2022/07/24 07:08:42;;;;;;;3.90;2.90;;;19.40;60.20;21.50;94317.00;;;;10472678;28;45190;-62
2022/07/24 07:14:04;;;;;;;5.10;3.28;;;19.40;60.30;21.50;94314.00;;;;10474863;28;45173;-64
2022/07/24 07:19:25;;;;;;;4.25;2.60;;;19.40;60.30;21.50;94314.00;;;;10479657;28;45339;-62
2022/07/24 07:24:45;;;;;;;4.65;3.00;;;19.40;60.30;21.50;94313.00;;;;10473481;28;45232;-64
2022/07/24 07:30:09;;;;;;;4.22;3.00;;;19.40;60.20;21.50;94327.00;;;;10472200;28;45255;-63
2022/07/24 07:35:29;;;;;;;3.55;2.90;;;19.40;60.20;21.50;94320.00;;;;10470982;28;45199;-64
2022/07/24 07:40:50;;;;;;;3.85;2.90;;;19.40;60.20;21.50;94326.00;;;;10471259;28;45287;-64
2022/07/24 07:46:12;;;;;;;4.28;2.88;;;19.40;60.20;21.50;94315.00;;;;10471339;28;45127;-62
2022/07/24 07:51:32;;;;;;;3.33;2.90;;;19.40;60.30;21.60;94318.00;;;;10471739;28;45148;-63
2022/07/24 07:56:53;;;;;;;5.18;3.08;;;19.40;60.10;21.60;94321.00;;;;10470488;28;45182;-62
2022/07/24 08:02:15;;;;;;;4.70;3.25;;;19.40;60.30;21.60;94323.00;;;;10475485;28;45220;-63
2022/07/24 08:07:36;;;;;;;4.35;3.00;;;19.50;60.40;21.60;94325.00;;;;10475461;28;45163;-63
2022/07/24 08:12:57;;;;;;;3.75;3.05;;;19.50;60.50;21.60;94311.00;;;;10487770;28;45193;-64
2022/07/24 08:18:19;;;;;;;5.07;3.40;;;19.50;60.40;21.60;94318.00;;;;10473987;28;45437;-63
2022/07/24 08:23:39;;;;;;;4.00;3.10;;;19.50;60.30;21.60;94321.00;;;;10472997;28;45231;-63
2022/07/24 08:29:00;;;;;;;3.90;3.22;;;19.50;60.30;21.60;94310.00;;;;10469846;28;45030;-63
2022/07/24 08:34:23;;;;;;;4.95;3.28;;;19.50;60.40;21.70;94306.00;;;;10470405;28;45303;-62
2022/07/24 08:39:43;;;;;;;4.72;3.20;;;19.50;60.30;21.70;94307.00;;;;10469870;28;45188;-64
2022/07/24 08:45:06;;;;;;;3.15;2.72;;;19.60;60.20;21.70;94295.00;;;;10468783;28;45149;-63
2022/07/24 08:50:28;;;;;;;3.78;3.08;;;19.60;60.30;21.70;94299.00;;;;10473403;28;45207;-63
2022/07/24 08:55:50;;;;;;;4.78;3.42;;;19.60;60.10;21.70;94303.00;;;;10474971;28;45241;-63
2022/07/24 09:01:10;;;;;;;4.53;3.38;;;19.60;60.10;21.70;94310.00;;;;10482054;28;45219;-63
2022/07/24 09:06:32;;;;;;;5.28;3.30;;;19.60;60.10;21.70;94301.00;;;;10476780;28;45191;-64
2022/07/24 09:12:05;;;;;;;4.30;3.38;;;19.60;60.00;21.70;94291.00;;;;10476643;28;45403;-63
2022/07/24 09:17:26;;;;;;;3.83;2.88;;;19.50;60.00;21.70;94298.00;;;;10474702;28;45466;-63
2022/07/24 09:22:48;;;;;;;5.50;3.47;;;19.50;60.00;21.70;94303.00;;;;10472261;28;45198;-62
2022/07/24 09:28:09;;;;;;;4.18;3.38;;;19.60;60.40;21.80;94286.00;;;;10499845;28;45265;-63
2022/07/24 09:33:37;;;;;;;5.07;3.17;;;19.60;60.00;21.80;94300.00;;;;10475655;28;45199;-63
2022/07/24 09:38:59;;;;;;;4.75;3.47;;;19.60;59.90;21.80;94298.00;;;;10475143;28;45247;-63
2022/07/24 09:44:23;;;;;;;3.72;3.17;;;19.60;59.90;21.80;94283.00;;;;10475150;28;45186;-63
2022/07/24 09:49:44;;;;;;;4.50;3.08;;;19.60;59.90;21.80;94291.00;;;;10485277;28;45489;-63
2022/07/24 09:55:24;;;;;;;3.75;2.88;;;19.70;59.80;21.90;94291.00;;;;10472877;28;45221;-63
2022/07/24 10:00:47;;;;;;;4.88;3.50;;;19.70;59.60;21.90;94287.00;;;;10465637;28;45164;-62
2022/07/24 10:06:11;;;;;;;4.35;3.40;;;19.70;59.80;21.90;94279.00;;;;10487843;28;45583;-62
2022/07/24 10:11:35;;;;;;;5.20;3.08;;;19.70;59.90;21.90;94282.00;;;;10481122;28;45117;-65
2022/07/24 10:17:06;;;;;;;4.45;3.35;;;19.70;59.70;21.90;94276.00;;;;10481742;28;45387;-63
2022/07/24 10:22:39;;;;;;;4.65;3.13;;;19.80;59.70;21.90;94269.00;;;;10473890;28;45502;-65
2022/07/24 10:28:05;;;;;;;4.70;3.55;;;19.80;60.10;21.90;94271.00;;;;10473375;28;45280;-63
2022/07/24 10:33:27;;;;;;;4.38;3.38;;;19.80;60.30;21.90;94272.00;;;;10484272;28;45364;-63
2022/07/24 10:39:09;;;;;;;4.75;3.30;;;19.80;59.80;22.00;94260.00;;;;10482492;28;45256;-63
2022/07/24 10:44:32;;;;;;;5.13;3.38;;;19.80;59.80;22.00;94271.00;;;;10476517;28;45204;-62
2022/07/24 10:49:53;;;;;;;6.07;3.40;;;19.80;59.70;22.00;94259.00;;;;10473466;28;45120;-63
2022/07/24 10:55:26;;;;;;;5.18;3.58;;;19.90;59.80;22.00;94262.00;;;;10472772;28;45239;-63
2022/07/24 11:00:51;;;;;;;4.78;3.67;;;19.90;60.00;22.00;94249.00;;;;10472872;28;45191;-63
2022/07/24 11:06:14;;;;;;;6.05;3.90;;;19.80;60.50;22.00;94235.00;;;;10472351;28;45133;-62
2022/07/24 11:11:40;;;;;;;4.38;3.60;;;19.80;60.40;22.00;94241.00;;;;10479428;27;45153;-63
2022/07/24 11:17:39;;;;;;;4.17;3.43;;;19.80;60.30;22.00;94224.00;;;;10470253;28;45355;-63
2022/07/24 11:23:00;;;;;;;4.97;3.33;;;19.90;60.40;22.00;94222.00;;;;10475580;28;45423;-64
2022/07/24 11:28:21;;;;;;;5.90;3.60;;;19.90;60.30;22.00;94223.00;;;;10471764;28;45330;-63
2022/07/24 11:33:43;;;;;;;4.45;3.88;;;19.90;60.30;22.00;94217.00;;;;10471657;28;45537;-63
2022/07/24 11:39:04;;;;;;;4.95;3.45;;;19.90;60.10;22.00;94208.00;;;;10471946;28;45347;-63
2022/07/24 11:44:28;;;;;;;6.15;3.80;;;19.90;60.10;22.00;94211.00;;;;10470999;28;45246;-63
2022/07/24 11:49:53;;;;;;;4.60;3.47;;;19.90;60.10;22.10;94216.00;;;;10470848;28;45292;-63
2022/07/24 11:55:17;;;;;;;4.20;3.40;;;19.90;60.00;22.10;94209.00;;;;10470785;28;45213;-64
2022/07/24 12:00:37;;;;;;;4.13;3.30;;;19.90;59.90;22.10;94202.00;;;;10471765;28;45522;-66
2022/07/24 12:06:02;;;;;;;4.32;3.30;;;19.90;59.80;22.10;94213.00;;;;10483358;28;45203;-64
2022/07/24 12:11:24;;;;;;;4.20;3.30;;;20.00;59.80;22.10;94191.00;;;;10484745;28;45206;-63
2022/07/24 12:16:52;;;;;;;5.30;3.35;;;20.00;59.90;22.10;94193.00;;;;10481992;28;45148;-63
2022/07/24 12:22:14;;;;;;;5.50;3.20;;;20.00;59.90;22.10;94185.00;;;;10468931;28;45193;-64
2022/07/24 12:27:41;;;;;;;6.70;3.28;;;20.00;59.90;22.20;94170.00;;;;10466013;28;45233;-64
2022/07/24 12:33:05;;;;;;;6.15;3.63;;;20.00;60.00;22.20;94171.00;;;;10467500;28;45292;-64
2022/07/24 12:38:30;;;;;;;5.90;3.40;;;20.00;60.00;22.20;94171.00;;;;10470014;28;45269;-63
2022/07/24 12:43:54;;;;;;;4.38;3.25;;;20.00;60.10;22.20;94166.00;;;;10456208;28;45231;-64
2022/07/24 12:49:16;;;;;;;4.97;3.28;;;20.00;60.30;22.20;94150.00;;;;10470128;28;45253;-63
2022/07/24 12:54:38;;;;;;;5.80;3.50;;;20.00;60.20;22.10;94154.00;;;;10469191;28;45136;-64
2022/07/24 13:00:04;;;;;;;5.70;3.40;;;20.00;60.20;22.20;94134.00;;;;10469056;28;45349;-63
2022/07/24 13:05:38;;;;;;;4.65;2.97;;;20.10;60.20;22.20;94140.00;;;;10482558;28;45434;-63
2022/07/24 13:11:01;;;;;;;4.60;2.95;;;20.00;60.30;22.20;94136.00;;;;10469457;28;45745;-64
2022/07/24 13:16:23;;;;;;;5.10;3.42;;;20.00;60.20;22.20;94133.00;;;;10477203;28;45276;-64
2022/07/24 13:21:45;;;;;;;5.57;3.30;;;20.00;60.20;22.20;94124.00;;;;10467196;28;45199;-63
2022/07/24 13:27:09;;;;;;;4.28;3.10;;;20.00;60.20;22.20;94106.00;;;;10467437;28;45215;-64
2022/07/24 13:32:30;;;;;;;4.15;3.15;;;20.00;60.10;22.10;94110.00;;;;10468340;28;45192;-64
2022/07/24 13:37:50;;;;;;;4.88;3.10;;;20.00;60.10;22.20;94105.00;;;;10473649;28;45499;-63
2022/07/24 13:43:12;;;;;;;4.93;3.20;;;20.00;60.00;22.10;94084.00;;;;10475357;28;45149;-64
2022/07/24 13:48:33;;;;;;;3.58;2.80;;;20.00;60.10;22.10;94089.00;;;;10475262;28;45183;-64
2022/07/24 13:53:54;;;;;;;4.25;2.88;;;20.00;60.00;22.20;94089.00;;;;10474867;28;45181;-65
2022/07/24 13:59:16;;;;;;;5.45;3.42;;;20.00;60.00;22.10;94073.00;;;;10472858;28;45145;-63
2022/07/24 14:04:36;;;;;;;4.20;3.20;;;20.00;60.00;22.10;94056.00;;;;10474638;28;45300;-63
2022/07/24 14:09:57;;;;;;;4.10;3.00;;;20.00;59.90;22.10;94068.00;;;;10461304;28;45149;-63
2022/07/24 14:15:19;;;;;;;4.60;3.03;;;20.00;59.90;22.10;94050.00;;;;10481208;28;45295;-63
2022/07/24 14:20:40;;;;;;;4.65;2.97;;;20.00;59.90;22.10;94051.00;;;;10474610;28;45315;-63
2022/07/24 14:26:00;;;;;;;4.15;2.90;;;19.90;59.80;22.10;94042.00;;;;10472830;28;45198;-64
2022/07/24 14:31:22;;;;;;;3.65;2.92;;;20.00;59.90;22.10;94046.00;;;;10462967;28;45374;-64
2022/07/24 14:36:43;;;;;;;3.92;3.10;;;20.00;59.90;22.10;94046.00;;;;10473593;28;45160;-63
2022/07/24 14:42:05;;;;;;;4.15;3.10;;;19.90;59.80;22.10;94022.00;;;;10473749;28;45211;-64
2022/07/24 14:47:27;;;;;;;4.65;3.15;;;20.00;59.80;22.10;94029.00;;;;10471967;28;45247;-64
2022/07/24 14:52:47;;;;;;;3.67;3.15;;;19.90;59.80;22.10;94023.00;;;;10473506;28;45163;-64
2022/07/24 14:58:09;;;;;;;3.63;2.83;;;20.00;59.90;22.10;94017.00;;;;10472500;28;45212;-63
2022/07/24 15:03:31;;;;;;;3.90;2.88;;;19.90;59.80;22.10;94019.00;;;;10486371;28;45098;-64
2022/07/24 15:08:51;;;;;;;4.90;2.97;;;19.90;59.80;22.10;94015.00;;;;10472705;28;45176;-64
2022/07/24 15:14:12;;;;;;;3.65;3.08;;;20.00;59.80;22.10;94009.00;;;;10483367;28;45172;-63
2022/07/24 15:19:34;;;;;;;7.78;6.97;;;19.90;59.70;22.10;93999.00;;;;10472475;28;45232;-63
2022/07/24 15:24:54;;;;;;;17.35;15.68;;;20.00;59.80;22.10;94004.00;;;;10470664;28;45171;-63
2022/07/24 15:30:19;;;;;;;18.88;17.08;;;19.90;59.70;22.10;94001.00;;;;10472120;28;45205;-64
2022/07/24 15:35:41;;;;;;;9.07;7.78;;;20.00;59.90;22.10;93993.00;;;;10471924;28;45202;-64
2022/07/24 15:41:01;;;;;;;7.95;6.50;;;19.90;59.80;22.10;93981.00;;;;10471362;28;45186;-63
2022/07/24 15:46:22;;;;;;;10.20;8.05;;;19.90;59.80;22.10;93977.00;;;;10471391;28;45223;-63
2022/07/24 15:51:44;;;;;;;7.32;5.55;;;19.90;59.80;22.10;93976.00;;;;10468731;28;45444;-64
2022/07/24 15:57:05;;;;;;;6.13;5.15;;;19.90;59.80;22.10;93986.00;;;;10469567;28;45215;-64
2022/07/24 16:02:25;;;;;;;6.90;5.47;;;20.00;59.80;22.10;93987.00;;;;10471722;28;45148;-63
2022/07/24 16:07:47;;;;;;;6.22;4.95;;;20.00;59.80;22.10;93988.00;;;;10470609;28;45442;-64
2022/07/24 16:13:08;;;;;;;6.30;4.95;;;20.00;59.90;22.10;93968.00;;;;10479433;28;45434;-64
2022/07/24 16:18:30;;;;;;;5.43;4.75;;;20.00;59.90;22.10;93961.00;;;;10476305;28;45160;-63
2022/07/24 16:23:52;;;;;;;5.43;4.05;;;20.00;60.00;22.10;93962.00;;;;10471307;28;45211;-64
2022/07/24 16:29:12;;;;;;;6.10;4.30;;;20.00;59.90;22.10;93933.00;;;;10477056;28;45179;-64
2022/07/24 16:34:33;;;;;;;4.78;4.25;;;20.00;59.90;22.20;93947.00;;;;10465516;28;45185;-63
2022/07/24 16:39:55;;;;;;;4.75;3.70;;;20.00;59.70;22.20;93934.00;;;;10473020;28;45196;-65
2022/07/24 16:45:16;;;;;;;5.00;3.80;;;20.00;59.50;22.20;93941.00;;;;10483716;28;45221;-65
2022/07/24 16:50:37;;;;;;;4.97;3.90;;;20.00;59.50;22.20;93941.00;;;;10463435;28;45374;-63
2022/07/24 16:55:59;;;;;;;4.85;3.63;;;20.00;59.40;22.20;93933.00;;;;10476236;28;45204;-64
2022/07/24 17:01:20;;;;;;;5.70;3.85;;;20.10;59.60;22.20;93934.00;;;;10476551;28;45406;-63
2022/07/24 17:06:40;;;;;;;4.20;3.33;;;20.00;59.30;22.20;93925.00;;;;10462673;28;45521;-63
2022/07/24 17:12:03;;;;;;;3.47;2.92;;;20.00;59.20;22.20;93933.00;;;;10482182;28;45461;-63
2022/07/24 17:17:23;;;;;;;4.20;3.30;;;20.10;59.20;22.20;93925.00;;;;10493675;28;45165;-64
2022/07/24 17:22:44;;;;;;;4.13;3.20;;;20.10;59.10;22.20;93925.00;;;;10483070;28;45187;-64
2022/07/24 17:28:08;;;;;;;3.95;2.78;;;20.00;58.60;22.20;93929.00;;;;10482287;28;45170;-64
2022/07/24 17:33:29;;;;;;;3.75;2.95;;;20.00;58.80;22.20;93915.00;;;;10482920;28;45175;-63
2022/07/24 17:38:49;;;;;;;3.08;2.50;;;20.10;58.80;22.20;93921.00;;;;10482968;28;45188;-63
2022/07/24 17:44:11;;;;;;;3.92;2.80;;;20.00;58.60;22.20;93910.00;;;;10468788;28;45179;-63
2022/07/24 17:49:32;;;;;;;3.95;3.00;;;20.10;58.60;22.20;93911.00;;;;10482412;28;45213;-64
2022/07/24 17:54:52;;;;;;;3.70;2.70;;;20.00;58.50;22.20;93914.00;;;;10470117;28;45453;-63
2022/07/24 18:00:15;;;;;;;3.95;3.00;;;20.00;58.40;22.20;93911.00;;;;10470995;28;45449;-64
2022/07/24 18:05:36;;;;;;;4.32;2.70;;;20.00;58.40;22.20;93901.00;;;;10479413;28;45418;-63
2022/07/24 18:10:56;;;;;;;3.78;2.75;;;20.00;58.30;22.20;93913.00;;;;10481394;28;45159;-63
2022/07/24 18:16:18;;;;;;;3.33;2.60;;;20.00;58.60;22.20;93910.00;;;;10491894;28;45255;-65
2022/07/24 18:21:40;;;;;;;3.13;2.40;;;20.00;58.20;22.20;93898.00;;;;10476942;28;45818;-65
2022/07/24 18:27:00;;;;;;;3.80;2.85;;;20.00;58.20;22.20;93923.00;;;;10480492;28;45285;-63
2022/07/24 18:32:22;;;;;;;3.35;2.53;;;20.00;58.10;22.20;93926.00;;;;10480507;28;45445;-63
2022/07/24 18:37:43;;;;;;;3.70;2.67;;;20.00;58.00;22.20;93911.00;;;;10454324;28;45222;-63
2022/07/24 18:43:03;;;;;;;3.60;2.70;;;20.00;58.10;22.10;93922.00;;;;10480086;28;45410;-63
2022/07/24 18:48:25;;;;;;;3.35;2.67;;;20.00;58.10;22.10;93927.00;;;;10480725;28;45177;-63
2022/07/24 18:53:47;;;;;;;4.80;3.03;;;20.00;58.00;22.20;93937.00;;;;10479416;28;45472;-63
2022/07/24 18:59:07;;;;;;;3.72;2.60;;;20.00;58.10;22.20;93932.00;;;;10478957;28;45444;-64
2022/07/24 19:04:29;;;;;;;4.00;2.80;;;20.00;58.10;22.20;93938.00;;;;10479100;28;45069;-63
2022/07/24 19:09:49;;;;;;;4.72;2.92;;;20.00;58.10;22.20;93933.00;;;;10479494;28;45137;-63
2022/07/24 19:15:10;;;;;;;3.42;2.70;;;20.00;58.20;22.20;93933.00;;;;10479828;28;45434;-64
2022/07/24 19:20:32;;;;;;;4.60;2.85;;;20.00;58.20;22.20;93938.00;;;;10485135;28;45476;-63
2022/07/24 19:25:52;;;;;;;4.18;2.65;;;20.00;58.30;22.20;93932.00;;;;10478552;28;45228;-63
2022/07/24 19:31:13;;;;;;;4.15;3.00;;;20.10;58.20;22.20;93937.00;;;;10479001;28;45324;-63
2022/07/24 19:36:35;;;;;;;4.20;2.80;;;20.10;58.20;22.20;93934.00;;;;10476614;28;45235;-65
2022/07/24 19:41:56;;;;;;;2.97;2.55;;;20.10;58.10;22.20;93938.00;;;;10478665;28;45383;-63
2022/07/24 19:47:19;;;;;;;5.63;3.05;;;20.10;58.10;22.20;93945.00;;;;10477101;28;45472;-64
2022/07/24 19:52:41;;;;;;;4.90;3.13;;;20.00;58.00;22.20;93955.00;;;;10477825;28;45216;-63
2022/07/24 19:58:02;;;;;;;3.60;2.90;;;20.00;58.10;22.20;93957.00;;;;10476521;28;45200;-63
2022/07/24 20:03:22;;;;;;;4.00;3.10;;;20.00;58.00;22.20;93949.00;;;;10479794;28;45280;-65
2022/07/24 20:08:44;;;;;;;4.57;3.00;;;20.00;57.90;22.20;93963.00;;;;10476373;28;45255;-65
2022/07/24 20:14:04;;;;;;;4.53;3.50;;;20.00;57.40;22.20;93949.00;;;;10475435;28;45238;-65
2022/07/24 20:19:25;;;;;;;3.60;3.03;;;20.00;57.40;22.10;93951.00;;;;10489066;28;45584;-64
2022/07/24 20:24:47;;;;;;;4.13;3.15;;;20.00;56.90;22.10;93960.00;;;;10449959;28;45232;-65
2022/07/24 20:30:09;;;;;;;4.45;3.15;;;20.00;57.10;22.10;93948.00;;;;10475009;28;45307;-65
2022/07/24 20:35:30;;;;;;;5.35;3.75;;;20.00;56.80;22.10;93958.00;;;;10484977;28;45048;-65
2022/07/24 20:40:52;;;;;;;4.47;3.47;;;20.00;56.60;22.10;93957.00;;;;10475935;28;45197;-65
2022/07/24 20:46:12;;;;;;;6.20;3.63;;;20.00;56.70;22.10;93953.00;;;;10475219;28;45394;-65
2022/07/24 20:51:32;;;;;;;4.20;3.50;;;20.00;56.60;22.10;93953.00;;;;10479302;28;45068;-65
2022/07/24 20:56:54;;;;;;;5.18;3.70;;;20.00;56.50;22.10;93949.00;;;;10480680;28;45149;-65
2022/07/24 21:02:15;;;;;;;4.90;3.70;;;19.90;56.50;22.10;93934.00;;;;10464290;28;45331;-65
2022/07/24 21:07:36;;;;;;;3.78;2.97;;;19.90;56.50;22.10;93939.00;;;;10474223;28;45156;-65
2022/07/24 21:12:57;;;;;;;4.25;3.40;;;20.00;56.40;22.10;93948.00;;;;10474611;28;45323;-65
2022/07/24 21:18:18;;;;;;;4.10;3.25;;;20.00;56.20;22.10;93940.00;;;;10474556;28;45259;-65
2022/07/24 21:23:39;;;;;;;4.70;3.50;;;20.00;56.10;22.00;93932.00;;;;10473958;28;45400;-65
2022/07/24 21:29:00;;;;;;;4.13;3.15;;;20.00;56.20;22.00;93932.00;;;;10473798;28;45225;-64
2022/07/24 21:34:21;;;;;;;4.97;3.47;;;19.90;56.10;22.00;93934.00;;;;10462236;28;45629;-65
2022/07/24 21:39:41;;;;;;;5.07;3.42;;;19.90;56.10;22.00;93928.00;;;;10474212;28;45252;-63
2022/07/24 21:45:04;;;;;;;4.82;3.50;;;19.90;56.00;22.00;93938.00;;;;10473515;28;45542;-65
2022/07/24 21:50:25;;;;;;;4.72;3.17;;;19.90;56.50;22.00;93923.00;;;;10461236;28;45242;-65
2022/07/24 21:55:46;;;;;;;5.97;3.88;;;19.90;56.00;22.00;93931.00;;;;10489059;28;45170;-64
2022/07/24 22:01:08;;;;;;;4.95;3.55;;;19.90;56.00;22.00;93934.00;;;;10480420;28;45275;-65
2022/07/24 22:06:28;;;;;;;4.57;3.67;;;19.90;55.90;22.00;93922.00;;;;10491473;28;45283;-64
2022/07/24 22:11:49;;;;;;;5.85;3.75;;;19.90;55.90;22.00;93934.00;;;;10497382;28;45249;-65
2022/07/24 22:17:11;;;;;;;4.30;3.50;;;19.90;55.90;22.00;93936.00;;;;10484970;28;45206;-65
2022/07/24 22:22:31;;;;;;;4.55;3.58;;;19.90;56.00;22.00;93926.00;;;;10475764;28;45412;-65
2022/07/24 22:27:52;;;;;;;4.75;3.40;;;19.90;55.90;21.90;93916.00;;;;10479940;28;45176;-65
2022/07/24 22:33:14;;;;;;;3.88;3.40;;;19.90;55.90;21.90;93893.00;;;;10479697;28;45304;-64
2022/07/24 22:38:35;;;;;;;4.50;3.22;;;19.90;55.90;21.90;93922.00;;;;10495372;28;45473;-66
2022/07/24 22:43:56;;;;;;;5.15;3.30;;;19.90;55.90;21.90;93926.00;;;;10475892;28;45269;-65
2022/07/24 22:49:20;;;;;;;5.05;3.15;;;19.90;55.90;21.90;93906.00;;;;10479519;28;45437;-65
2022/07/24 22:54:43;;;;;;;4.53;3.40;;;19.90;56.00;21.90;93916.00;;;;10479226;28;45180;-65
2022/07/24 23:00:06;;;;;;;4.68;3.45;;;19.90;56.10;21.90;93911.00;;;;10478067;28;45150;-65
2022/07/24 23:05:28;;;;;;;4.32;3.60;;;19.90;55.90;22.00;93920.00;;;;10476628;28;45227;-65
2022/07/24 23:10:49;;;;;;;5.13;3.80;;;19.90;56.00;21.90;93902.00;;;;10477057;28;45165;-65
2022/07/24 23:16:09;;;;;;;4.68;3.67;;;19.90;56.00;21.90;93914.00;;;;10478492;28;45250;-65
2022/07/24 23:21:31;;;;;;;4.50;3.38;;;19.90;56.00;21.90;93905.00;;;;10478306;28;45120;-65
2022/07/24 23:26:52;;;;;;;4.35;3.40;;;19.90;55.90;21.90;93902.00;;;;10477949;28;45324;-65
2022/07/24 23:32:13;;;;;;;4.80;3.72;;;19.90;56.10;21.90;93897.00;;;;10477792;28;45211;-65